Time;durP1;ratioP1;P1;durP2;ratioP2;P2;SDS_P1;SDS_P2;PMS_P1;PMS_P2;Temp;Humidity;BMP_temperature;BMP_pressure;BME280_temperature;BME280_humidity;BME280_pressure;Samples;Min_cycle;Max_cycle;Signal;HPM_P1;HPM_P2
2023/03/20 00:00:23;;;;;;;3.10;2.90;;;12.90;51.10;;;;;;20576;6821;335967;-74
2023/03/20 00:02:49;;;;;;;3.00;2.90;;;13.20;50.60;;;;;;20569;6821;294010;-74
2023/03/20 00:05:18;;;;;;;3.10;2.90;;;13.40;50.20;;;;;;20790;6821;118279;-74
2023/03/20 00:07:44;;;;;;;3.10;2.90;;;13.20;50.50;;;;;;20571;6821;327405;-74
2023/03/20 00:10:10;;;;;;;3.20;2.90;;;13.00;50.60;;;;;;20774;6821;117286;-74
2023/03/20 00:12:35;;;;;;;3.13;2.97;;;12.90;50.50;;;;;;20575;6821;307231;-73
2023/03/20 00:15:03;;;;;;;2.93;2.73;;;13.20;50.40;;;;;;20561;6821;299389;-74
2023/03/20 00:17:29;;;;;;;2.87;2.67;;;13.20;50.40;;;;;;20578;6821;282463;-74
2023/03/20 00:19:54;;;;;;;3.00;2.80;;;13.40;50.20;;;;;;20780;6821;120834;-74
2023/03/20 00:22:21;;;;;;;3.00;2.80;;;13.20;50.30;;;;;;20575;6821;336617;-74
2023/03/20 00:24:45;;;;;;;2.80;2.60;;;13.20;50.40;;;;;;20573;6821;311746;-73
2023/03/20 00:27:11;;;;;;;2.60;2.50;;;13.40;50.20;;;;;;20787;6821;118070;-73
2023/03/20 00:29:36;;;;;;;2.70;2.50;;;13.30;50.40;;;;;;20786;6821;118306;-76
2023/03/20 00:32:02;;;;;;;2.83;2.62;;;13.00;51.00;;;;;;20571;6821;278476;-74
2023/03/20 00:34:30;;;;;;;2.72;2.62;;;12.90;50.90;;;;;;20783;6821;117419;-73
2023/03/20 00:36:55;;;;;;;2.67;2.53;;;12.90;50.90;;;;;;20794;6821;118353;-73
2023/03/20 00:39:20;;;;;;;3.20;3.00;;;12.70;51.30;;;;;;20579;6821;307893;-73
2023/03/20 00:41:51;;;;;;;2.70;2.60;;;12.80;51.20;;;;;;20575;6821;278699;-73
2023/03/20 00:44:34;;;;;;;2.90;2.80;;;13.00;50.70;;;;;;20583;6821;278298;-74
2023/03/20 00:46:59;;;;;;;2.67;2.47;;;13.30;50.70;;;;;;20577;6821;338783;-73
2023/03/20 00:49:25;;;;;;;2.50;2.40;;;13.40;50.00;;;;;;20568;6821;341044;-73
2023/03/20 00:51:51;;;;;;;2.40;2.30;;;13.50;49.80;;;;;;20765;6821;117687;-74
2023/03/20 00:54:16;;;;;;;2.45;2.35;;;13.30;50.10;;;;;;20792;6819;118461;-75
2023/03/20 00:56:41;;;;;;;2.43;2.30;;;12.90;50.70;;;;;;20793;6820;118094;-74
2023/03/20 00:59:07;;;;;;;2.77;2.63;;;12.60;51.30;;;;;;20566;6821;305067;-73
2023/03/20 01:01:32;;;;;;;2.40;2.30;;;12.70;51.50;;;;;;20771;6821;123035;-73
2023/03/20 01:03:58;;;;;;;2.20;2.10;;;12.70;51.40;;;;;;20779;6821;118056;-73
2023/03/20 01:06:24;;;;;;;2.90;2.70;;;12.50;51.70;;;;;;20574;6821;278158;-73
2023/03/20 01:08:49;;;;;;;2.70;2.50;;;12.60;51.90;;;;;;20793;6821;123313;-72
2023/03/20 01:11:16;;;;;;;2.47;2.30;;;12.40;52.20;;;;;;20797;6821;117112;-73
2023/03/20 01:13:41;;;;;;;2.80;2.60;;;12.40;52.20;;;;;;20565;6821;280349;-73
2023/03/20 01:16:21;;;;;;;2.92;2.62;;;12.90;51.60;;;;;;20575;6821;396104;-75
2023/03/20 01:18:46;;;;;;;2.27;2.17;;;12.90;51.60;;;;;;20788;6821;117156;-74
2023/03/20 01:21:12;;;;;;;2.60;2.40;;;12.80;51.50;;;;;;20578;6821;314809;-74
2023/03/20 01:23:37;;;;;;;2.47;2.27;;;12.90;51.70;;;;;;20798;6821;117091;-74
2023/03/20 01:26:04;;;;;;;2.57;2.37;;;12.60;52.00;;;;;;20775;6821;119743;-74
2023/03/20 01:28:29;;;;;;;2.50;2.30;;;12.60;52.00;;;;;;20754;6821;117792;-74
2023/03/20 01:30:56;;;;;;;2.67;2.47;;;12.30;52.50;;;;;;20791;6821;118842;-74
2023/03/20 01:33:21;;;;;;;1.90;1.80;;;12.30;52.50;;;;;;20790;6821;117586;-74
2023/03/20 01:35:47;;;;;;;2.67;2.47;;;12.10;52.60;;;;;;20569;6821;308061;-76
2023/03/20 01:38:19;;;;;;;2.20;2.10;;;12.40;52.60;;;;;;20651;6821;117258;-74
2023/03/20 01:40:57;;;;;;;2.13;1.80;;;12.40;52.20;;;;;;20784;6821;117161;-74
2023/03/20 01:43:23;;;;;;;2.20;2.10;;;12.30;52.40;;;;;;20578;6821;311551;-74
2023/03/20 01:45:48;;;;;;;2.10;2.00;;;12.50;52.00;;;;;;20568;6821;311147;-75
2023/03/20 01:48:14;;;;;;;2.20;2.00;;;12.80;51.70;;;;;;20771;6821;119204;-74
2023/03/20 01:50:39;;;;;;;1.73;1.63;;;12.70;51.50;;;;;;20779;6821;117198;-74
2023/03/20 01:53:11;;;;;;;2.07;1.97;;;12.50;51.80;;;;;;20791;6821;117491;-74
2023/03/20 01:55:36;;;;;;;2.00;1.90;;;12.30;52.10;;;;;;20363;6821;282234;-74
2023/03/20 01:58:03;;;;;;;1.92;1.83;;;12.80;51.20;;;;;;20554;6821;307174;-76
2023/03/20 02:00:28;;;;;;;1.70;1.60;;;12.80;51.20;;;;;;20776;6821;118442;-74
2023/03/20 02:02:55;;;;;;;1.70;1.60;;;12.80;51.20;;;;;;20779;6821;117939;-74
2023/03/20 02:05:21;;;;;;;2.00;1.85;;;12.50;51.50;;;;;;20580;6819;307096;-74
2023/03/20 02:07:46;;;;;;;1.55;1.52;;;12.60;51.80;;;;;;20582;6820;336166;-75
2023/03/20 02:10:12;;;;;;;1.70;1.60;;;12.90;50.90;;;;;;20510;6823;310686;-74
2023/03/20 02:12:39;;;;;;;1.50;1.50;;;13.20;50.50;;;;;;20595;6807;280123;-74
2023/03/20 02:15:05;;;;;;;1.70;1.60;;;13.50;49.40;;;;;;20624;6807;279790;-74
2023/03/20 02:17:32;;;;;;;1.63;1.53;;;13.50;49.30;;;;;;20792;6808;119546;-73
2023/03/20 02:20:08;;;;;;;1.70;1.60;;;13.30;49.60;;;;;;20544;6822;308902;-75
2023/03/20 02:23:04;;;;;;;1.90;1.80;;;13.20;49.70;;;;;;20563;6822;277210;-75
2023/03/20 02:25:53;;;;;;;1.83;1.73;;;13.50;49.30;;;;;;20526;6836;307692;-75
2023/03/20 02:28:56;;;;;;;1.70;1.67;;;13.40;49.20;;;;;;20695;6843;125941;-73
2023/03/20 02:31:27;;;;;;;1.50;1.40;;;13.10;49.60;;;;;;20715;6843;116957;-74
2023/03/20 02:34:02;;;;;;;3.43;1.43;;;12.60;50.40;;;;;;20647;6843;118322;-74
2023/03/20 02:36:34;;;;;;;1.90;1.80;;;12.30;51.00;;;;;;20475;6843;311075;-74
2023/03/20 02:39:36;;;;;;;1.70;1.70;;;12.40;51.10;;;;;;20708;6843;120990;-73
2023/03/20 02:42:15;;;;;;;1.60;1.50;;;12.40;51.20;;;;;;20655;6843;117514;-73
2023/03/20 02:45:07;;;;;;;1.43;1.43;;;12.10;51.60;;;;;;20715;6843;121305;-73
2023/03/20 02:47:33;;;;;;;1.62;1.60;;;11.90;52.00;;;;;;20489;6843;307315;-73
2023/03/20 02:50:08;;;;;;;1.80;1.70;;;12.20;52.10;;;;;;20450;6843;340854;-74
2023/03/20 02:52:57;;;;;;;1.47;1.47;;;12.60;51.50;;;;;;20585;6843;117442;-74
2023/03/20 02:55:36;;;;;;;1.30;1.30;;;12.50;51.40;;;;;;20722;6843;117025;-74
2023/03/20 02:58:05;;;;;;;1.30;1.30;;;12.20;51.70;;;;;;20658;6843;118245;-74
2023/03/20 03:00:37;;;;;;;1.80;1.70;;;12.00;52.10;;;;;;20486;6843;291121;-74
2023/03/20 03:03:06;;;;;;;1.80;1.70;;;12.20;52.30;;;;;;20482;6843;310456;-74
2023/03/20 03:05:31;;;;;;;1.80;1.70;;;12.60;51.70;;;;;;20376;6842;119421;-74
2023/03/20 03:07:57;;;;;;;1.73;1.57;;;12.50;51.50;;;;;;20479;6842;285111;-74
2023/03/20 03:10:28;;;;;;;1.87;1.77;;;12.60;51.60;;;;;;20716;6842;123247;-74
2023/03/20 03:12:54;;;;;;;2.00;1.70;;;12.50;51.60;;;;;;20716;6842;118249;-75
2023/03/20 03:15:19;;;;;;;1.90;1.80;;;12.30;52.00;;;;;;20721;6842;125668;-74
2023/03/20 03:17:46;;;;;;;1.80;1.70;;;12.10;52.40;;;;;;20499;6840;277646;-74
2023/03/20 03:20:24;;;;;;;1.58;1.52;;;12.20;52.20;;;;;;20495;6841;284230;-74
2023/03/20 03:22:50;;;;;;;1.80;1.70;;;12.60;51.70;;;;;;20692;6841;117027;-72
2023/03/20 03:25:17;;;;;;;2.20;1.70;;;12.30;52.00;;;;;;20724;6841;117488;-72
2023/03/20 03:27:43;;;;;;;1.70;1.60;;;12.20;51.80;;;;;;20494;6842;307096;-74
2023/03/20 03:30:15;;;;;;;1.30;1.30;;;12.40;51.40;;;;;;20480;6842;335408;-74
2023/03/20 03:32:45;;;;;;;1.77;1.67;;;12.70;51.30;;;;;;20468;6842;306970;-74
2023/03/20 03:35:18;;;;;;;1.63;1.53;;;13.10;50.40;;;;;;20487;6842;307102;-73
2023/03/20 03:37:53;;;;;;;1.37;1.27;;;13.10;50.40;;;;;;20714;6842;117765;-73
2023/03/20 03:40:29;;;;;;;1.50;1.40;;;12.90;50.50;;;;;;20707;6842;117425;-74
2023/03/20 03:43:08;;;;;;;1.43;1.43;;;12.50;51.10;;;;;;20707;6842;117115;-74
2023/03/20 03:45:34;;;;;;;1.50;1.40;;;12.30;52.00;;;;;;20491;6842;277662;-74
2023/03/20 03:48:12;;;;;;;1.33;1.33;;;12.30;51.90;;;;;;20688;6842;117809;-74
2023/03/20 03:50:47;;;;;;;1.20;1.20;;;12.30;52.60;;;;;;20713;6842;117185;-74
2023/03/20 03:53:10;;;;;;;1.27;1.27;;;12.00;52.20;;;;;;20486;6842;311374;-74
2023/03/20 03:55:38;;;;;;;1.30;1.27;;;12.20;52.50;;;;;;20710;6842;117020;-74
2023/03/20 03:58:10;;;;;;;1.40;1.30;;;12.20;52.40;;;;;;20681;6842;121917;-74
2023/03/20 04:00:36;;;;;;;1.20;1.13;;;12.00;52.70;;;;;;20711;6842;117571;-74
2023/03/20 04:03:02;;;;;;;1.25;1.25;;;11.80;53.00;;;;;;20490;6842;298697;-73
2023/03/20 04:05:30;;;;;;;1.10;1.10;;;12.00;52.90;;;;;;20493;6842;336856;-73
2023/03/20 04:07:53;;;;;;;1.30;1.20;;;12.40;51.90;;;;;;20464;6842;315106;-74
2023/03/20 04:10:19;;;;;;;1.10;1.10;;;12.60;52.00;;;;;;20718;6842;117628;-73
2023/03/20 04:12:45;;;;;;;1.07;1.00;;;12.50;51.90;;;;;;20723;6842;117120;-73
2023/03/20 04:15:11;;;;;;;1.58;1.08;;;12.10;52.70;;;;;;20728;6842;116373;-74
2023/03/20 04:17:36;;;;;;;1.23;1.20;;;12.10;52.70;;;;;;20509;6842;336141;-74
2023/03/20 04:20:02;;;;;;;0.90;0.90;;;12.20;52.70;;;;;;20706;6842;120299;-73
2023/03/20 04:22:28;;;;;;;1.37;1.37;;;12.20;52.60;;;;;;20510;6842;290939;-73
2023/03/20 04:24:53;;;;;;;1.30;1.20;;;12.40;53.50;;;;;;20505;6842;303467;-73
2023/03/20 04:27:20;;;;;;;1.33;1.23;;;12.60;52.20;;;;;;20728;6840;122925;-73
2023/03/20 04:29:45;;;;;;;1.53;1.30;;;12.60;51.90;;;;;;20723;6841;117128;-72
2023/03/20 04:32:12;;;;;;;1.30;1.30;;;12.10;52.70;;;;;;20691;6841;119455;-75
2023/03/20 04:34:38;;;;;;;1.07;1.07;;;12.10;52.60;;;;;;20729;6841;116846;-71
2023/03/20 04:37:07;;;;;;;1.10;1.10;;;11.90;53.00;;;;;;20720;6841;116974;-71
2023/03/20 04:39:29;;;;;;;2.80;1.40;;;11.80;53.30;;;;;;20509;6842;309863;-71
2023/03/20 04:41:55;;;;;;;2.30;1.30;;;12.00;53.30;;;;;;20703;6842;123005;-71
2023/03/20 04:44:20;;;;;;;1.20;1.20;;;12.00;53.00;;;;;;20727;6842;118324;-71
2023/03/20 04:46:46;;;;;;;0.95;0.95;;;11.90;53.10;;;;;;20720;6842;118629;-71
2023/03/20 04:49:12;;;;;;;1.37;1.23;;;11.80;53.40;;;;;;20722;6842;117053;-71
2023/03/20 04:51:37;;;;;;;1.25;1.25;;;11.70;53.60;;;;;;20726;6842;117088;-71
2023/03/20 04:54:03;;;;;;;1.25;1.25;;;11.50;53.70;;;;;;20708;6842;117542;-71
2023/03/20 04:56:28;;;;;;;1.40;1.30;;;11.40;53.80;;;;;;20506;6842;307621;-71
2023/03/20 04:58:54;;;;;;;1.20;1.20;;;11.70;54.00;;;;;;20736;6842;117093;-71
2023/03/20 05:01:22;;;;;;;1.40;1.30;;;11.60;54.40;;;;;;20732;6842;117116;-71
2023/03/20 05:03:46;;;;;;;1.20;1.10;;;11.60;53.80;;;;;;20728;6842;118070;-71
2023/03/20 05:06:11;;;;;;;1.27;1.23;;;11.50;54.00;;;;;;20711;6842;117171;-71
2023/03/20 05:08:37;;;;;;;1.35;1.30;;;11.40;54.10;;;;;;20512;6842;294711;-71
2023/03/20 05:11:02;;;;;;;1.33;1.23;;;11.70;54.10;;;;;;20516;6842;306649;-70
2023/03/20 05:13:28;;;;;;;1.60;1.27;;;12.10;53.40;;;;;;20728;6842;117426;-71
2023/03/20 05:15:55;;;;;;;1.30;1.30;;;12.10;53.10;;;;;;20496;6842;277858;-71
2023/03/20 05:18:20;;;;;;;1.40;1.30;;;12.30;53.70;;;;;;20510;6842;306785;-71
2023/03/20 05:20:47;;;;;;;1.40;1.30;;;12.50;52.50;;;;;;20729;6842;119306;-72
2023/03/20 05:23:13;;;;;;;1.27;1.27;;;12.50;52.50;;;;;;20723;6842;117762;-71
2023/03/20 05:25:38;;;;;;;1.00;1.00;;;12.20;52.80;;;;;;20724;6842;117708;-71
2023/03/20 05:28:04;;;;;;;1.47;1.37;;;12.00;53.20;;;;;;20705;6842;122837;-72
2023/03/20 05:30:30;;;;;;;1.20;1.20;;;11.80;53.40;;;;;;20510;6842;296851;-72
2023/03/20 05:32:55;;;;;;;1.00;1.00;;;12.00;53.30;;;;;;20724;6842;118135;-72
2023/03/20 05:35:22;;;;;;;1.20;1.20;;;12.10;53.10;;;;;;20725;6842;117039;-72
2023/03/20 05:37:48;;;;;;;2.55;1.37;;;11.90;53.20;;;;;;20496;6842;306848;-72
2023/03/20 05:40:14;;;;;;;1.60;1.50;;;12.50;52.40;;;;;;20513;6840;308221;-72
2023/03/20 05:42:40;;;;;;;1.40;1.20;;;12.40;52.30;;;;;;20357;6841;117873;-73
2023/03/20 05:45:06;;;;;;;1.20;1.10;;;12.40;52.20;;;;;;20727;6841;117986;-73
2023/03/20 05:47:31;;;;;;;1.60;1.50;;;12.20;52.50;;;;;;20516;6841;277278;-73
2023/03/20 05:49:57;;;;;;;1.10;1.10;;;12.30;52.30;;;;;;20716;6841;117098;-74
2023/03/20 05:52:23;;;;;;;1.20;1.20;;;12.30;52.30;;;;;;20523;6842;306288;-73
2023/03/20 05:54:49;;;;;;;1.33;1.30;;;12.50;52.30;;;;;;20518;6842;312858;-72
2023/03/20 05:57:14;;;;;;;1.00;1.00;;;12.70;51.80;;;;;;20730;6842;119684;-72
2023/03/20 05:59:40;;;;;;;1.23;1.20;;;12.40;52.20;;;;;;20716;6842;117144;-73
2023/03/20 06:02:06;;;;;;;1.60;1.50;;;12.40;52.20;;;;;;20690;6842;117280;-72
2023/03/20 06:04:31;;;;;;;1.20;1.10;;;12.20;52.60;;;;;;20706;6842;116976;-71
2023/03/20 06:06:58;;;;;;;1.30;1.30;;;12.20;52.90;;;;;;20512;6842;340827;-72
2023/03/20 06:09:23;;;;;;;1.07;1.07;;;12.20;52.80;;;;;;20719;6842;117537;-73
2023/03/20 06:11:49;;;;;;;1.33;1.23;;;12.20;52.60;;;;;;20510;6842;296704;-73
2023/03/20 06:14:14;;;;;;;1.23;1.23;;;12.40;52.40;;;;;;20729;6842;118419;-74
2023/03/20 06:16:40;;;;;;;1.02;1.02;;;12.40;52.30;;;;;;20520;6842;306797;-73
2023/03/20 06:19:06;;;;;;;1.00;1.00;;;12.60;51.80;;;;;;20725;6842;117184;-75
2023/03/20 06:21:31;;;;;;;1.70;1.60;;;12.50;51.80;;;;;;20723;6842;117202;-74
2023/03/20 06:23:58;;;;;;;1.05;0.90;;;12.40;52.20;;;;;;20706;6842;121327;-74
2023/03/20 06:26:22;;;;;;;1.00;1.00;;;12.20;52.40;;;;;;20717;6842;117232;-73
2023/03/20 06:28:48;;;;;;;1.17;1.13;;;12.00;52.70;;;;;;20507;6842;336251;-73
2023/03/20 06:31:15;;;;;;;1.33;1.27;;;12.20;52.60;;;;;;20507;6842;311863;-74
2023/03/20 06:33:40;;;;;;;1.42;1.30;;;12.70;52.30;;;;;;20485;6842;311375;-73
2023/03/20 06:36:06;;;;;;;1.83;1.23;;;13.00;51.50;;;;;;20484;6842;339376;-73
2023/03/20 06:38:31;;;;;;;1.60;1.50;;;13.30;50.80;;;;;;20506;6842;311315;-72
2023/03/20 06:40:57;;;;;;;1.17;1.17;;;13.50;50.30;;;;;;20719;6842;117706;-73
2023/03/20 06:43:22;;;;;;;1.40;1.30;;;13.30;50.30;;;;;;20520;6842;311057;-73
2023/03/20 06:45:49;;;;;;;1.40;1.40;;;13.20;50.60;;;;;;20695;6842;118091;-75
2023/03/20 06:48:20;;;;;;;1.67;1.57;;;13.20;50.60;;;;;;20504;6842;307188;-73
2023/03/20 06:50:41;;;;;;;1.33;1.33;;;13.30;50.70;;;;;;20710;6840;117323;-75
2023/03/20 06:53:07;;;;;;;1.37;1.27;;;13.20;50.80;;;;;;20720;6841;120692;-73
2023/03/20 06:55:33;;;;;;;1.40;1.30;;;13.00;51.30;;;;;;20518;6841;306733;-73
2023/03/20 06:57:58;;;;;;;1.23;1.15;;;13.10;51.30;;;;;;20700;6841;121689;-73
2023/03/20 07:00:24;;;;;;;2.20;1.70;;;13.10;51.30;;;;;;20722;6841;117699;-74
2023/03/20 07:02:50;;;;;;;1.73;1.62;;;13.20;52.30;;;;;;20512;6842;310464;-73
2023/03/20 07:05:17;;;;;;;1.57;1.47;;;13.10;51.40;;;;;;20720;6842;117511;-73
2023/03/20 07:07:41;;;;;;;1.80;1.70;;;13.20;51.30;;;;;;20513;6842;282430;-72
2023/03/20 07:10:08;;;;;;;4.28;1.80;;;13.40;51.10;;;;;;20492;6842;327609;-72
2023/03/20 07:12:33;;;;;;;2.10;1.40;;;13.70;50.40;;;;;;20735;6842;118068;-71
2023/03/20 07:14:59;;;;;;;1.70;1.40;;;13.70;50.50;;;;;;20527;6842;306498;-72
2023/03/20 07:17:24;;;;;;;1.50;1.40;;;13.80;50.20;;;;;;20732;6842;116220;-72
2023/03/20 07:19:50;;;;;;;1.17;1.17;;;13.70;50.30;;;;;;20709;6842;119542;-73
2023/03/20 07:22:23;;;;;;;1.50;1.40;;;13.80;50.70;;;;;;20515;6842;339508;-73
2023/03/20 07:24:48;;;;;;;2.73;1.40;;;13.70;50.60;;;;;;20716;6842;117125;-73
2023/03/20 07:27:14;;;;;;;1.50;1.43;;;13.80;50.70;;;;;;20504;6842;329086;-73
2023/03/20 07:29:39;;;;;;;1.40;1.40;;;14.00;50.10;;;;;;20506;6842;316432;-73
2023/03/20 07:32:05;;;;;;;1.90;1.13;;;14.40;49.40;;;;;;20701;6842;118369;-74
2023/03/20 07:34:32;;;;;;;1.30;1.30;;;14.40;49.40;;;;;;20722;6842;123093;-75
2023/03/20 07:36:57;;;;;;;1.63;1.53;;;14.20;49.80;;;;;;20517;6842;314797;-73
2023/03/20 07:39:23;;;;;;;4.23;3.90;;;14.30;49.40;;;;;;20732;6842;119950;-73
2023/03/20 07:41:48;;;;;;;2.30;2.20;;;14.40;49.50;;;;;;20501;6842;277316;-72
2023/03/20 07:44:17;;;;;;;1.50;1.40;;;14.50;48.80;;;;;;20516;6842;309977;-73
2023/03/20 07:46:40;;;;;;;2.40;2.30;;;14.70;48.10;;;;;;20717;6842;117947;-73
2023/03/20 07:49:05;;;;;;;7.37;6.67;;;14.50;48.20;;;;;;20727;6842;119266;-76
2023/03/20 07:51:31;;;;;;;3.83;3.30;;;14.10;48.70;;;;;;20499;6842;307112;-74
2023/03/20 07:53:56;;;;;;;1.50;1.40;;;14.20;48.70;;;;;;20698;6842;117228;-74
2023/03/20 07:56:24;;;;;;;2.53;2.40;;;14.40;48.60;;;;;;20506;6842;310541;-73
2023/03/20 07:58:49;;;;;;;2.47;2.27;;;14.30;48.50;;;;;;20721;6842;119908;-72
2023/03/20 08:01:15;;;;;;;2.28;2.17;;;14.30;48.80;;;;;;20508;6842;308342;-72
2023/03/20 08:03:41;;;;;;;1.40;1.40;;;14.50;49.20;;;;;;20725;6840;117169;-72
2023/03/20 08:06:08;;;;;;;1.40;1.30;;;14.40;48.60;;;;;;20497;6841;330948;-72
2023/03/20 08:08:34;;;;;;;1.80;1.70;;;14.60;48.40;;;;;;20736;6841;118685;-72
2023/03/20 08:10:59;;;;;;;1.20;1.20;;;14.50;48.30;;;;;;20736;6841;117026;-72
2023/03/20 08:13:25;;;;;;;2.00;1.80;;;14.30;48.60;;;;;;20728;6842;117427;-72
2023/03/20 08:15:50;;;;;;;1.65;1.55;;;14.20;49.10;;;;;;20707;6842;118244;-73
2023/03/20 08:18:16;;;;;;;1.60;1.50;;;14.00;49.10;;;;;;20726;6842;117262;-72
2023/03/20 08:20:41;;;;;;;2.80;2.70;;;13.90;49.30;;;;;;20520;6842;336208;-72
2023/03/20 08:23:07;;;;;;;1.83;1.73;;;14.10;48.20;;;;;;20729;6842;117580;-72
2023/03/20 08:25:33;;;;;;;1.30;1.20;;;14.20;48.20;;;;;;20725;6842;117513;-72
2023/03/20 08:27:59;;;;;;;1.80;1.12;;;14.20;47.50;;;;;;20494;6842;335813;-72
2023/03/20 08:30:25;;;;;;;1.57;1.47;;;14.20;47.90;;;;;;20723;6842;117090;-71
2023/03/20 08:32:50;;;;;;;3.40;3.20;;;14.30;48.30;;;;;;20735;6842;117449;-72
2023/03/20 08:35:16;;;;;;;1.30;1.30;;;14.20;48.10;;;;;;20736;6842;117546;-74
2023/03/20 08:37:42;;;;;;;1.23;1.20;;;14.10;48.30;;;;;;20736;6842;116924;-72
2023/03/20 08:40:08;;;;;;;1.03;1.03;;;14.00;48.40;;;;;;20710;6842;120086;-72
2023/03/20 08:42:33;;;;;;;2.90;1.60;;;13.90;48.50;;;;;;20514;6842;277365;-74
2023/03/20 08:44:59;;;;;;;2.20;2.10;;;14.10;47.50;;;;;;20725;6842;118032;-72
2023/03/20 08:47:25;;;;;;;1.00;1.00;;;14.00;47.60;;;;;;20513;6842;336463;-73
2023/03/20 08:49:51;;;;;;;1.50;1.50;;;14.30;47.00;;;;;;20497;6842;331756;-75
2023/03/20 08:52:16;;;;;;;1.37;1.37;;;14.60;46.60;;;;;;20528;6842;303558;-73
2023/03/20 08:54:42;;;;;;;1.35;1.25;;;15.10;45.80;;;;;;20520;6842;277430;-75
2023/03/20 08:57:08;;;;;;;1.50;1.40;;;15.10;45.80;;;;;;20515;6842;306776;-76
2023/03/20 08:59:34;;;;;;;2.20;1.70;;;15.30;45.60;;;;;;20514;6842;278717;-74
2023/03/20 09:02:00;;;;;;;1.57;1.50;;;15.50;45.10;;;;;;20701;6842;132742;-74
2023/03/20 09:04:26;;;;;;;1.50;1.40;;;15.40;45.50;;;;;;20721;6842;121568;-73
2023/03/20 09:06:51;;;;;;;1.27;1.23;;;15.10;46.20;;;;;;20726;6842;117119;-74
2023/03/20 09:09:19;;;;;;;1.48;1.20;;;14.90;46.70;;;;;;20515;6842;307050;-73
2023/03/20 09:11:42;;;;;;;1.40;1.30;;;15.10;46.20;;;;;;20717;6842;118253;-73
2023/03/20 09:14:08;;;;;;;1.62;1.52;;;15.20;46.30;;;;;;20501;6840;306767;-72
2023/03/20 09:16:34;;;;;;;2.00;1.40;;;15.70;45.50;;;;;;20510;6841;309699;-72
2023/03/20 09:19:00;;;;;;;1.80;1.70;;;15.70;45.50;;;;;;20729;6841;117497;-74
2023/03/20 09:21:25;;;;;;;1.33;1.23;;;15.80;45.50;;;;;;20724;6841;118021;-75
2023/03/20 09:23:51;;;;;;;1.70;1.60;;;15.60;45.60;;;;;;20500;6841;306298;-75
2023/03/20 09:26:17;;;;;;;3.03;2.83;;;15.70;44.60;;;;;;20725;6842;117751;-77
2023/03/20 09:28:44;;;;;;;1.60;1.37;;;15.80;45.20;;;;;;20520;6842;280904;-76
2023/03/20 09:31:10;;;;;;;1.40;1.40;;;16.00;44.30;;;;;;20528;6842;276745;-76
2023/03/20 09:33:35;;;;;;;2.13;2.03;;;16.30;44.30;;;;;;20726;6842;117053;-77
2023/03/20 09:36:00;;;;;;;3.50;3.20;;;16.40;44.40;;;;;;20509;6842;294969;-76
2023/03/20 09:38:26;;;;;;;5.63;5.13;;;16.50;43.50;;;;;;20738;6842;117307;-79
2023/03/20 09:40:56;;;;;;;1.73;1.57;;;16.60;42.60;;;;;;20515;6842;313038;-79
2023/03/20 09:43:48;;;;;;;5.97;5.20;;;16.60;42.50;;;;;;20728;6842;120927;-77
2023/03/20 09:46:27;;;;;;;3.27;3.00;;;16.60;43.00;;;;;;20530;6842;277196;-77
2023/03/20 09:49:16;;;;;;;1.15;1.15;;;16.70;42.50;;;;;;20522;6842;335904;-77
2023/03/20 09:51:54;;;;;;;1.10;1.10;;;16.90;41.40;;;;;;20736;6842;121065;-77
2023/03/20 09:54:22;;;;;;;0.73;0.73;;;16.80;42.00;;;;;;20716;6842;117226;-77
2023/03/20 09:56:48;;;;;;;0.70;0.70;;;16.60;42.50;;;;;;20715;6842;117048;-77
2023/03/20 09:59:15;;;;;;;0.70;0.70;;;16.50;42.70;;;;;;20520;6842;277289;-76
2023/03/20 10:01:47;;;;;;;1.50;0.88;;;16.60;40.50;;;;;;20514;6842;305850;-75
2023/03/20 10:04:14;;;;;;;1.52;0.80;;;17.00;40.10;;;;;;20464;6842;306919;-75
2023/03/20 10:06:40;;;;;;;0.75;0.75;;;17.40;39.90;;;;;;20507;6842;278445;-76
2023/03/20 10:09:25;;;;;;;0.77;0.77;;;17.60;38.30;;;;;;20722;6838;118664;-75
2023/03/20 10:12:21;;;;;;;0.90;0.80;;;17.50;39.10;;;;;;20405;6828;127522;-74
2023/03/20 10:14:56;;;;;;;1.03;1.03;;;17.10;40.00;;;;;;20764;6828;117252;-76
2023/03/20 10:17:46;;;;;;;0.90;0.90;;;16.50;41.40;;;;;;20751;6828;118234;-75
2023/03/20 10:20:15;;;;;;;1.20;1.10;;;16.30;42.00;;;;;;20740;6828;117376;-73
2023/03/20 10:22:44;;;;;;;0.80;0.80;;;16.30;41.90;;;;;;20407;6828;118703;-79
2023/03/20 10:25:17;;;;;;;0.90;0.90;;;16.10;42.10;;;;;;20759;6826;117108;-75
2023/03/20 10:27:43;;;;;;;1.10;1.00;;;15.90;42.40;;;;;;20567;6827;278278;-76
2023/03/20 10:30:27;;;;;;;1.00;1.00;;;16.10;41.10;;;;;;20534;6827;309545;-78
2023/03/20 10:33:00;;;;;;;1.10;1.10;;;16.30;39.80;;;;;;20771;6827;117065;-76
2023/03/20 10:35:36;;;;;;;4.47;4.07;;;16.20;40.40;;;;;;20559;6827;279951;-75
2023/03/20 10:38:28;;;;;;;1.03;1.03;;;16.20;40.00;;;;;;20486;6828;277996;-75
2023/03/20 10:40:54;;;;;;;1.23;1.20;;;16.40;40.10;;;;;;20553;6828;318933;-77
2023/03/20 10:43:21;;;;;;;1.07;1.07;;;16.60;39.90;;;;;;20760;6828;117559;-75
2023/03/20 10:45:51;;;;;;;1.50;1.40;;;16.10;41.70;;;;;;20758;6828;116965;-74
2023/03/20 10:48:20;;;;;;;2.30;1.10;;;16.10;41.00;;;;;;20768;6828;117654;-75
2023/03/20 10:50:45;;;;;;;1.20;1.10;;;15.80;41.50;;;;;;20542;6828;308016;-74
2023/03/20 10:53:11;;;;;;;0.90;0.90;;;15.90;40.70;;;;;;20688;6828;117553;-77
2023/03/20 10:55:36;;;;;;;1.30;1.20;;;15.80;41.10;;;;;;20553;6828;306897;-77
2023/03/20 10:58:05;;;;;;;0.83;0.83;;;15.90;41.00;;;;;;20762;6828;121104;-75
2023/03/20 11:00:31;;;;;;;1.00;1.00;;;15.90;41.30;;;;;;20586;6828;116738;-78
2023/03/20 11:02:56;;;;;;;0.70;0.70;;;15.70;41.60;;;;;;20774;6828;118134;-76
2023/03/20 11:05:28;;;;;;;0.90;0.90;;;15.50;41.70;;;;;;20562;6828;276641;-75
2023/03/20 11:08:10;;;;;;;0.90;0.90;;;15.70;41.00;;;;;;20533;6828;320167;-76
2023/03/20 11:10:37;;;;;;;1.10;1.00;;;16.00;40.30;;;;;;20548;6828;305911;-74
2023/03/20 11:13:23;;;;;;;1.23;0.80;;;16.80;40.80;;;;;;20548;6828;336073;-74
2023/03/20 11:15:49;;;;;;;0.80;0.80;;;16.80;40.70;;;;;;20522;6828;131056;-77
2023/03/20 11:18:14;;;;;;;0.70;0.70;;;17.00;40.80;;;;;;20768;6828;117444;-76
2023/03/20 11:20:49;;;;;;;0.88;0.88;;;16.90;41.00;;;;;;20564;6828;324455;-73
2023/03/20 11:23:18;;;;;;;0.90;0.90;;;17.10;38.80;;;;;;20749;6828;123688;-75
2023/03/20 11:25:51;;;;;;;0.70;0.70;;;17.10;39.40;;;;;;20696;6828;117032;-81
2023/03/20 11:28:17;;;;;;;1.00;1.00;;;17.00;39.40;;;;;;20544;6828;306378;-75
2023/03/20 11:30:43;;;;;;;1.27;1.27;;;17.30;38.60;;;;;;20682;6828;117104;-78
2023/03/20 11:33:09;;;;;;;1.17;0.93;;;17.30;38.30;;;;;;20755;6828;117559;-75
2023/03/20 11:35:34;;;;;;;1.20;1.20;;;17.20;38.70;;;;;;20770;6828;117343;-78
2023/03/20 11:38:13;;;;;;;1.00;1.00;;;17.00;38.70;;;;;;20537;6826;278627;-78
2023/03/20 11:40:39;;;;;;;1.10;1.00;;;17.20;36.90;;;;;;20384;6827;307843;-75
2023/03/20 11:43:09;;;;;;;0.80;0.80;;;17.50;37.60;;;;;;20787;6827;117117;-74
2023/03/20 11:45:34;;;;;;;0.90;0.90;;;17.50;37.10;;;;;;20556;6827;305943;-78
2023/03/20 11:48:00;;;;;;;0.90;0.90;;;17.60;36.00;;;;;;20535;6828;277144;-71
2023/03/20 11:50:30;;;;;;;0.90;0.90;;;17.80;35.30;;;;;;20555;6828;310282;-76
2023/03/20 11:52:55;;;;;;;0.80;0.80;;;17.80;35.20;;;;;;20556;6828;311742;-73
2023/03/20 11:55:28;;;;;;;1.30;0.80;;;17.90;34.70;;;;;;20782;6828;118451;-72
2023/03/20 11:58:00;;;;;;;0.80;0.70;;;17.70;35.50;;;;;;20550;6828;309639;-72
2023/03/20 12:00:29;;;;;;;0.70;0.70;;;17.60;35.10;;;;;;20556;6828;277613;-71
2023/03/20 12:02:54;;;;;;;0.73;0.73;;;17.80;35.30;;;;;;20750;6828;121363;-70
2023/03/20 12:05:38;;;;;;;0.80;0.60;;;17.70;36.10;;;;;;20560;6828;306334;-71
2023/03/20 12:08:05;;;;;;;0.53;0.53;;;17.70;35.90;;;;;;20747;6828;124911;-73
2023/03/20 12:10:35;;;;;;;0.70;0.70;;;17.70;36.60;;;;;;20549;6828;306216;-72
2023/03/20 12:13:06;;;;;;;0.90;0.90;;;17.70;35.60;;;;;;20766;6828;117635;-76
2023/03/20 12:15:32;;;;;;;1.40;0.80;;;17.70;36.00;;;;;;20440;6828;120554;-76
2023/03/20 12:18:07;;;;;;;0.85;0.85;;;17.40;36.50;;;;;;20529;6828;320282;-74
2023/03/20 12:20:36;;;;;;;0.67;0.67;;;17.50;36.30;;;;;;20749;6828;120481;-74
2023/03/20 12:23:08;;;;;;;0.70;0.70;;;17.40;36.70;;;;;;20767;6828;117090;-73
2023/03/20 12:25:47;;;;;;;0.60;0.60;;;17.20;37.10;;;;;;20757;6828;116944;-73
2023/03/20 12:28:32;;;;;;;1.30;1.20;;;17.00;37.40;;;;;;20733;6828;119306;-74
2023/03/20 12:31:18;;;;;;;1.30;0.90;;;16.80;37.60;;;;;;20747;6828;124786;-74
2023/03/20 12:34:09;;;;;;;2.60;1.20;;;16.60;37.70;;;;;;20756;6828;118200;-74
2023/03/20 12:36:38;;;;;;;1.00;1.00;;;16.30;38.30;;;;;;20763;6828;117259;-77
2023/03/20 12:39:04;;;;;;;1.17;1.07;;;16.30;38.30;;;;;;20572;6828;283523;-74
2023/03/20 12:41:39;;;;;;;1.70;1.10;;;16.50;38.00;;;;;;20565;6828;281473;-73